createdAt,value
2019-01-04T00:01:54.662Z,0.97
2019-01-04T00:04:23.333Z,0.99
2019-01-04T00:06:52.457Z,1.04
2019-01-04T00:09:21.129Z,0.95
2019-01-04T00:11:49.803Z,1.00
2019-01-04T00:14:18.833Z,0.95
2019-01-04T00:16:47.507Z,0.92
2019-01-04T00:19:16.187Z,0.96
2019-01-04T00:21:44.934Z,1.02
2019-01-04T00:24:13.652Z,1.08
2019-01-04T00:26:42.296Z,1.01
2019-01-04T00:29:11.197Z,0.89
2019-01-04T00:31:39.868Z,0.89
2019-01-04T00:34:08.542Z,0.87
2019-01-04T00:36:37.279Z,0.82
2019-01-04T00:39:06.648Z,0.84
2019-01-04T00:41:35.322Z,0.87
2019-01-04T00:44:04.376Z,0.90
2019-01-04T00:46:33.046Z,1.05
2019-01-04T00:49:01.731Z,0.89
2019-01-04T00:51:30.374Z,0.89
2019-01-04T00:53:59.042Z,0.87
2019-01-04T00:56:42.530Z,0.89
2019-01-04T00:59:25.973Z,0.77
2019-01-04T01:02:06.762Z,0.64
2019-01-04T01:04:47.075Z,0.69
2019-01-04T01:07:34.079Z,0.72
2019-01-04T01:10:14.426Z,0.72
2019-01-04T01:13:02.492Z,0.72
2019-01-04T01:15:40.163Z,0.72
2019-01-04T01:18:45.032Z,0.77
2019-01-04T01:21:28.581Z,0.82
2019-01-04T01:24:20.967Z,0.73
2019-01-04T01:27:10.507Z,0.63
2019-01-04T01:30:15.233Z,0.63
2019-01-04T01:33:08.044Z,0.52
2019-01-04T01:36:11.653Z,0.52
2019-01-04T01:38:58.034Z,0.57
2019-01-04T01:41:49.412Z,0.59
2019-01-04T01:44:55.727Z,0.57
2019-01-04T01:47:30.407Z,0.45
2019-01-04T01:50:14.192Z,0.32
2019-01-04T01:52:44.673Z,0.41
2019-01-04T01:55:13.452Z,0.45
2019-01-04T01:57:42.127Z,0.45
2019-01-04T02:00:11.024Z,0.38
2019-01-04T02:02:39.691Z,0.40
2019-01-04T02:05:08.459Z,0.36
2019-01-04T02:07:37.373Z,0.38
2019-01-04T02:10:07.654Z,0.30
2019-01-04T02:12:36.330Z,0.20
2019-01-04T02:15:06.745Z,0.30
2019-01-04T02:17:35.410Z,0.36
2019-01-04T02:20:04.379Z,0.26
2019-01-04T02:22:33.219Z,0.31
2019-01-04T02:25:01.880Z,0.31
2019-01-04T02:27:30.556Z,0.40
2019-01-04T02:29:59.388Z,0.31
2019-01-04T02:32:28.051Z,0.35
2019-01-04T02:34:56.716Z,0.26
2019-01-04T02:37:25.640Z,0.17
2019-01-04T02:39:54.307Z,0.21
2019-01-04T02:42:25.916Z,0.10
2019-01-04T02:44:54.563Z,0.11
2019-01-04T02:47:23.247Z,-0.01
2019-01-04T02:49:51.918Z,-0.01
2019-01-04T02:52:20.879Z,-0.15
2019-01-04T02:54:49.558Z,-0.22
2019-01-04T02:57:18.233Z,-0.30
2019-01-04T02:59:47.046Z,-0.33
2019-01-04T03:02:15.731Z,-0.36
2019-01-04T03:04:44.403Z,-0.50
2019-01-04T03:07:13.417Z,-0.50
2019-01-04T03:09:42.080Z,-0.78
2019-01-04T03:12:10.756Z,-1.00
2019-01-04T03:14:39.560Z,-1.00
2019-01-04T03:17:08.230Z,-1.00
2019-01-04T03:19:36.908Z,-1.03
2019-01-04T03:22:05.642Z,-1.06
2019-01-04T03:24:34.309Z,-0.82
2019-01-04T03:27:02.994Z,-0.95
2019-01-04T03:29:31.817Z,-0.91
2019-01-04T03:32:00.494Z,-0.80
2019-01-04T03:34:29.172Z,-0.80
2019-01-04T03:36:57.936Z,-0.84
2019-01-04T03:39:26.608Z,-0.79
2019-01-04T03:41:55.284Z,-0.74
2019-01-04T03:44:24.204Z,-0.61
2019-01-04T03:46:52.890Z,-0.79
2019-01-04T03:49:21.563Z,-0.75
2019-01-04T03:51:50.403Z,-0.75
2019-01-04T03:54:19.096Z,-0.65
2019-01-04T03:56:47.765Z,-0.77
2019-01-04T03:59:16.692Z,-0.72
2019-01-04T04:01:45.372Z,-0.90
2019-01-04T04:04:14.062Z,-0.83
2019-01-04T04:06:42.929Z,-0.83
2019-01-04T04:09:11.618Z,-0.91
2019-01-04T04:11:40.294Z,-0.83
2019-01-04T04:14:09.033Z,-0.86
2019-01-04T04:16:37.706Z,-0.82
2019-01-04T04:19:06.376Z,-0.73
2019-01-04T04:21:35.211Z,-0.46
2019-01-04T04:24:03.904Z,-0.44
2019-01-04T04:26:32.598Z,-0.44
2019-01-04T04:29:01.575Z,-0.66
2019-01-04T04:31:30.264Z,-0.40
2019-01-04T04:33:58.944Z,-0.46
2019-01-04T04:36:27.772Z,-0.52
2019-01-04T04:38:56.454Z,-0.40
2019-01-04T04:41:25.134Z,-0.19
2019-01-04T04:43:53.958Z,-0.22
2019-01-04T04:46:22.648Z,-0.33
2019-01-04T04:48:51.325Z,-0.16
2019-01-04T04:51:20.133Z,-0.24
2019-01-04T04:53:48.830Z,-0.24
2019-01-04T04:56:17.501Z,-0.15
2019-01-04T04:58:46.362Z,-0.15
2019-01-04T05:01:15.052Z,-0.26
2019-01-04T05:03:43.730Z,-0.26
2019-01-04T05:06:12.792Z,-0.16
2019-01-04T05:08:41.468Z,-0.18
2019-01-04T05:11:10.161Z,-0.12
2019-01-04T05:13:39.008Z,-0.18
2019-01-04T05:16:07.679Z,-0.21
2019-01-04T05:18:36.356Z,-0.11
2019-01-04T05:21:05.085Z,-0.17
2019-01-04T05:23:33.760Z,-0.12
2019-01-04T05:26:02.455Z,-0.13
2019-01-04T05:28:31.482Z,-0.19
2019-01-04T05:31:00.158Z,-0.20
2019-01-04T05:33:28.853Z,-0.16
2019-01-04T05:35:57.678Z,-0.18
2019-01-04T05:38:26.358Z,-0.20
2019-01-04T05:40:55.043Z,-0.24
2019-01-04T05:43:23.921Z,-0.13
2019-01-04T05:45:52.621Z,-0.06
2019-01-04T05:48:21.309Z,-0.11
2019-01-04T05:50:50.058Z,-0.08
2019-01-04T05:53:18.745Z,-0.18
2019-01-04T05:55:47.433Z,-0.08
2019-01-04T05:58:17.514Z,-0.08
2019-01-04T06:00:46.192Z,-0.06
2019-01-04T06:03:14.887Z,-0.15
2019-01-04T06:05:43.715Z,-0.25
2019-01-04T06:08:12.385Z,-0.18
2019-01-04T06:10:41.061Z,-0.19
2019-01-04T06:13:09.810Z,-0.25
2019-01-04T06:15:38.491Z,-0.14
2019-01-04T06:18:07.184Z,-0.13
2019-01-04T06:20:35.935Z,-0.10
2019-01-04T06:23:04.621Z,-0.11
2019-01-04T06:25:33.293Z,0.13
2019-01-04T06:28:02.029Z,0.16
2019-01-04T06:30:30.714Z,0.15
2019-01-04T06:32:59.434Z,0.19
2019-01-04T06:35:28.221Z,0.21
2019-01-04T06:37:56.900Z,0.30
2019-01-04T06:40:25.584Z,0.32
2019-01-04T06:42:54.515Z,0.36
2019-01-04T06:45:23.193Z,0.46
2019-01-04T06:47:51.873Z,0.44
2019-01-04T06:50:20.585Z,0.51
2019-01-04T06:52:49.264Z,0.46
2019-01-04T06:55:20.855Z,0.45
2019-01-04T06:57:49.686Z,0.40
2019-01-04T07:00:18.369Z,0.49
2019-01-04T07:02:47.046Z,0.62
2019-01-04T07:05:15.845Z,0.82
2019-01-04T07:07:44.518Z,1.20
2019-01-04T07:10:13.199Z,1.28
2019-01-04T07:12:42.298Z,1.39
2019-01-04T07:15:10.986Z,1.42
2019-01-04T07:17:39.673Z,1.43
2019-01-04T07:20:08.770Z,1.23
2019-01-04T07:22:37.467Z,1.25
2019-01-04T07:25:06.135Z,1.24
2019-01-04T07:27:34.987Z,1.47
2019-01-04T07:30:04.561Z,1.51
2019-01-04T07:32:33.248Z,1.43
2019-01-04T07:35:02.821Z,1.53
2019-01-04T07:37:31.499Z,1.69
2019-01-04T07:40:00.189Z,1.97
2019-01-04T07:42:29.026Z,1.93
2019-01-04T07:44:57.710Z,1.92
2019-01-04T07:47:26.315Z,1.71
2019-01-04T07:49:55.158Z,1.89
2019-01-04T07:52:23.882Z,2.06
2019-01-04T07:54:52.512Z,2.47
2019-01-04T07:57:21.632Z,2.68
2019-01-04T07:59:50.313Z,3.00
2019-01-04T08:02:39.488Z,2.93
2019-01-04T08:05:10.851Z,2.82
2019-01-04T08:07:39.533Z,2.89
2019-01-04T08:10:08.762Z,2.98
2019-01-04T08:12:37.550Z,2.87
2019-01-04T08:15:09.464Z,3.00
2019-01-04T08:17:38.142Z,2.90
2019-01-04T08:20:09.225Z,2.89
2019-01-04T08:22:38.043Z,3.14
2019-01-04T08:25:07.817Z,3.09
2019-01-04T08:27:36.556Z,3.34
2019-01-04T08:30:08.992Z,3.88
2019-01-04T08:32:37.669Z,4.18
2019-01-04T08:35:06.337Z,4.09
2019-01-04T08:37:35.154Z,4.41
2019-01-04T08:40:04.136Z,4.75
2019-01-04T08:42:32.813Z,5.09
2019-01-04T08:45:01.644Z,5.10
2019-01-04T08:47:30.324Z,4.18
2019-01-04T08:49:59.125Z,4.02
2019-01-04T08:52:27.920Z,3.50
2019-01-04T08:54:56.598Z,3.20
2019-01-04T08:57:25.281Z,3.42
2019-01-04T08:59:54.085Z,3.58
2019-01-04T09:02:22.764Z,3.65
2019-01-04T09:04:51.537Z,3.69
2019-01-04T09:07:20.372Z,3.43
2019-01-04T09:09:50.598Z,3.54
2019-01-04T09:12:19.284Z,3.55
2019-01-04T09:14:48.280Z,3.55
2019-01-04T09:17:16.952Z,3.48
2019-01-04T09:19:45.626Z,3.49
2019-01-04T09:22:14.369Z,3.49
2019-01-04T09:24:43.042Z,3.26
2019-01-04T09:27:11.734Z,3.29
2019-01-04T09:29:40.543Z,3.27
2019-01-04T09:32:09.223Z,3.19
2019-01-04T09:34:37.897Z,3.16
2019-01-04T09:37:06.711Z,3.22
2019-01-04T09:39:35.381Z,3.21
2019-01-04T09:42:05.060Z,3.06
2019-01-04T09:44:34.025Z,2.75
2019-01-04T09:47:02.710Z,2.67
2019-01-04T09:49:31.189Z,2.94
2019-01-04T09:52:00.035Z,2.96
2019-01-04T09:54:28.710Z,2.94
2019-01-04T09:56:57.386Z,3.00
2019-01-04T09:59:26.203Z,2.98
2019-01-04T10:01:54.881Z,2.78
2019-01-04T10:04:23.567Z,2.84
2019-01-04T10:06:52.413Z,2.91
2019-01-04T10:09:21.087Z,2.99
2019-01-04T10:11:49.753Z,3.17
2019-01-04T10:14:18.485Z,3.36
2019-01-04T10:16:47.158Z,3.19
2019-01-04T10:19:15.830Z,3.36
2019-01-04T10:21:44.754Z,3.34
2019-01-04T10:24:14.219Z,3.59
2019-01-04T10:26:42.998Z,3.71
2019-01-04T10:29:11.963Z,3.89
2019-01-04T10:31:40.649Z,3.91
2019-01-04T10:34:09.338Z,3.79
2019-01-04T10:36:38.100Z,3.61
2019-01-04T10:39:07.631Z,3.58
2019-01-04T10:41:36.342Z,3.49
2019-01-04T10:44:05.174Z,3.78
2019-01-04T10:46:33.869Z,3.93
2019-01-04T10:49:02.544Z,3.85
2019-01-04T10:51:31.592Z,3.81
2019-01-04T10:54:00.271Z,3.82
2019-01-04T10:56:28.953Z,3.74
2019-01-04T10:58:57.785Z,3.48
2019-01-04T11:01:26.489Z,3.52
2019-01-04T11:03:56.911Z,3.51
2019-01-04T11:06:25.749Z,3.66
2019-01-04T11:08:54.434Z,3.77
2019-01-04T11:11:23.131Z,3.58
2019-01-04T11:13:52.035Z,3.60
2019-01-04T11:16:20.716Z,3.63
2019-01-04T11:18:53.390Z,3.57
2019-01-04T11:21:22.254Z,3.55
2019-01-04T11:24:28.713Z,3.45
2019-01-04T11:26:57.596Z,3.47
2019-01-04T11:29:31.772Z,3.43
2019-01-04T11:32:06.273Z,3.27
2019-01-04T11:34:43.749Z,3.21
2019-01-04T11:37:21.338Z,3.27
2019-01-04T11:40:09.207Z,3.33
2019-01-04T11:43:08.129Z,3.56
2019-01-04T11:45:39.722Z,3.72
2019-01-04T11:48:11.453Z,3.81
2019-01-04T11:50:43.050Z,3.94
2019-01-04T11:53:14.422Z,3.98
2019-01-04T11:55:43.214Z,3.87
2019-01-04T11:58:11.884Z,3.95
2019-01-04T12:00:40.559Z,3.81
2019-01-04T12:03:09.414Z,3.60
2019-01-04T12:05:38.106Z,3.48
2019-01-04T12:08:06.786Z,3.19
2019-01-04T12:10:35.599Z,3.21
2019-01-04T12:13:04.274Z,3.15
2019-01-04T12:15:32.949Z,3.17
2019-01-04T12:18:01.858Z,3.16
2019-01-04T12:20:30.527Z,3.12
2019-01-04T12:22:59.207Z,3.19
2019-01-04T12:25:28.169Z,3.13
2019-01-04T12:27:56.842Z,3.08
2019-01-04T12:30:25.521Z,3.07
2019-01-04T12:32:54.259Z,3.16
2019-01-04T12:35:22.933Z,3.06
2019-01-04T12:37:51.608Z,3.14
2019-01-04T12:40:20.476Z,3.14
2019-01-04T12:42:49.161Z,2.99
2019-01-04T12:45:17.843Z,2.99
2019-01-04T12:47:46.691Z,3.05
2019-01-04T12:50:15.369Z,3.10
2019-01-04T12:52:44.037Z,3.13
2019-01-04T12:55:12.798Z,3.08
2019-01-04T12:57:41.491Z,3.13
2019-01-04T13:00:13.071Z,3.29
2019-01-04T13:02:43.195Z,3.18
2019-01-04T13:05:13.667Z,3.01
2019-01-04T13:07:45.739Z,3.23
2019-01-04T13:10:14.416Z,3.25
2019-01-04T13:12:43.091Z,3.33
2019-01-04T13:15:16.791Z,3.68
2019-01-04T13:17:45.464Z,3.90
2019-01-04T13:20:14.252Z,4.26
2019-01-04T13:22:43.215Z,4.34
2019-01-04T13:25:11.901Z,4.05
2019-01-04T13:27:43.376Z,3.90
2019-01-04T13:30:12.192Z,3.72
2019-01-04T13:32:40.886Z,3.56
2019-01-04T13:35:09.568Z,3.44
2019-01-04T13:37:38.339Z,3.34
2019-01-04T13:40:07.016Z,3.32
2019-01-04T13:42:35.700Z,3.15
2019-01-04T13:45:05.305Z,2.94
2019-01-04T13:47:33.989Z,2.54
2019-01-04T13:50:02.668Z,2.20
2019-01-04T13:52:31.584Z,2.07
2019-01-04T13:55:00.288Z,2.00
2019-01-04T13:57:28.969Z,1.93
2019-01-04T13:59:58.148Z,1.96
2019-01-04T14:02:26.820Z,1.83
2019-01-04T14:04:55.499Z,1.90
2019-01-04T14:07:24.337Z,1.78
2019-01-04T14:09:53.009Z,1.82
2019-01-04T14:12:21.688Z,1.95
2019-01-04T14:14:50.436Z,1.91
2019-01-04T14:17:19.119Z,1.94
2019-01-04T14:19:47.809Z,1.78
2019-01-04T14:22:16.675Z,1.89
2019-01-04T14:24:45.316Z,1.77
2019-01-04T14:27:13.980Z,1.73
2019-01-04T14:29:42.891Z,1.56
2019-01-04T14:32:11.569Z,1.58
2019-01-04T14:34:40.255Z,1.55
2019-01-04T14:37:09.105Z,1.52
2019-01-04T14:39:37.786Z,1.44
2019-01-04T14:42:06.391Z,1.35
2019-01-04T14:44:35.406Z,1.37
2019-01-04T14:47:04.333Z,1.38
2019-01-04T14:49:33.016Z,1.32
2019-01-04T14:52:02.085Z,1.32
2019-01-04T14:54:30.762Z,1.25
2019-01-04T14:56:59.433Z,1.26
2019-01-04T14:59:28.262Z,1.28
2019-01-04T15:01:56.943Z,1.36
2019-01-04T15:04:25.652Z,1.36
2019-01-04T15:06:54.709Z,1.42
2019-01-04T15:09:23.391Z,1.39
2019-01-04T15:11:52.078Z,1.42
2019-01-04T15:14:20.815Z,1.41
2019-01-04T15:16:49.507Z,1.44
2019-01-04T15:19:18.192Z,1.43
2019-01-04T15:21:46.909Z,1.47
2019-01-04T15:24:15.586Z,1.47
2019-01-04T15:26:44.264Z,1.38
2019-01-04T15:29:13.014Z,1.33
2019-01-04T15:31:41.694Z,1.20
2019-01-04T15:34:10.388Z,1.11
2019-01-04T15:36:39.198Z,0.99
2019-01-04T15:39:08.179Z,0.87
2019-01-04T15:41:36.874Z,0.73
2019-01-04T15:44:05.687Z,0.55
2019-01-04T15:46:34.363Z,0.46
2019-01-04T15:49:03.051Z,0.31
2019-01-04T15:51:31.900Z,0.15
2019-01-04T15:54:00.579Z,0.01
2019-01-04T15:56:38.119Z,-0.14
2019-01-04T15:59:06.805Z,-0.25
2019-01-04T16:01:39.187Z,-0.37
2019-01-04T16:04:07.942Z,-0.48
2019-01-04T16:06:36.627Z,-0.60
2019-01-04T16:09:07.016Z,-0.73
2019-01-04T16:11:37.792Z,-0.83
2019-01-04T16:14:06.475Z,-0.86
2019-01-04T16:16:35.189Z,-0.91
2019-01-04T16:19:04.967Z,-0.99
2019-01-04T16:21:33.652Z,-1.01
2019-01-04T16:24:02.356Z,-1.06
2019-01-04T16:26:31.317Z,-1.13
2019-01-04T16:29:00.012Z,-1.15
2019-01-04T16:31:28.705Z,-1.21
2019-01-04T16:33:57.548Z,-1.24
2019-01-04T16:36:26.255Z,-1.30
2019-01-04T16:38:54.951Z,-1.30
2019-01-04T16:41:23.777Z,-1.30
2019-01-04T16:43:52.478Z,-1.27
2019-01-04T16:46:25.467Z,-1.31
2019-01-04T16:48:54.489Z,-1.32
2019-01-04T16:51:30.084Z,-1.28
2019-01-04T16:53:58.981Z,-1.27
2019-01-04T16:56:27.685Z,-1.30
2019-01-04T16:58:56.385Z,-1.26
2019-01-04T17:01:25.164Z,-1.28
2019-01-04T17:03:53.857Z,-1.36
2019-01-04T17:06:22.691Z,-1.34
2019-01-04T17:08:51.629Z,-1.25
2019-01-04T17:11:20.331Z,-1.08
2019-01-04T17:13:49.022Z,-0.85
2019-01-04T17:16:17.758Z,-0.85
2019-01-04T17:18:46.445Z,-0.82
2019-01-04T17:21:15.140Z,-0.82
2019-01-04T17:23:43.879Z,-0.88
2019-01-04T17:26:12.575Z,-0.94
2019-01-04T17:28:41.266Z,-0.98
2019-01-04T17:31:16.129Z,-1.05
2019-01-04T17:33:50.305Z,-1.11
2019-01-04T17:36:18.996Z,-1.14
2019-01-04T17:38:58.462Z,-1.14
2019-01-04T17:41:27.150Z,-1.13
2019-01-04T17:43:55.850Z,-1.17
2019-01-04T17:46:24.793Z,-1.14
2019-01-04T17:48:53.487Z,-1.08
2019-01-04T17:51:22.189Z,-1.05
2019-01-04T17:53:52.405Z,-0.89
2019-01-04T17:56:21.113Z,-0.75
2019-01-04T17:58:49.801Z,-0.76
2019-01-04T18:01:18.652Z,-0.90
2019-01-04T18:03:47.349Z,-1.03
2019-01-04T18:06:16.046Z,-1.05
2019-01-04T18:08:44.892Z,-1.06
2019-01-04T18:11:13.589Z,-1.04
2019-01-04T18:13:42.287Z,-0.89
2019-01-04T18:16:11.251Z,-0.77
2019-01-04T18:18:39.966Z,-0.66
2019-01-04T18:21:08.648Z,-0.52
2019-01-04T18:23:37.489Z,-0.33
2019-01-04T18:26:06.186Z,-0.23
2019-01-04T18:28:34.876Z,-0.17
2019-01-04T18:31:03.731Z,-0.11
2019-01-04T18:33:32.413Z,0.05
2019-01-04T18:36:01.095Z,0.22
2019-01-04T18:38:29.925Z,-0.12
2019-01-04T18:40:58.619Z,-0.21
2019-01-04T18:43:27.318Z,-0.27
2019-01-04T18:45:56.176Z,-0.28
2019-01-04T18:48:24.874Z,-0.42
2019-01-04T18:50:53.829Z,-0.49
2019-01-04T18:53:23.966Z,-0.45
2019-01-04T18:55:52.733Z,-0.52
2019-01-04T18:58:21.422Z,-0.52
2019-01-04T19:00:51.535Z,-0.56
2019-01-04T19:03:20.169Z,-0.49
2019-01-04T19:05:48.862Z,-0.50
2019-01-04T19:08:17.799Z,-0.45
2019-01-04T19:10:46.476Z,-0.63
2019-01-04T19:13:15.154Z,-0.44
2019-01-04T19:15:44.159Z,-0.52
2019-01-04T19:18:12.853Z,-0.38
2019-01-04T19:20:41.536Z,-0.42
2019-01-04T19:23:10.307Z,-0.34
2019-01-04T19:25:38.975Z,-0.22
2019-01-04T19:28:07.652Z,-0.18
2019-01-04T19:30:37.897Z,-0.17
2019-01-04T19:33:06.587Z,-0.08
2019-01-04T19:35:35.272Z,-0.16
2019-01-04T19:38:04.110Z,-0.23
2019-01-04T19:40:32.798Z,-0.21
2019-01-04T19:43:01.475Z,-0.24
2019-01-04T19:45:30.192Z,-0.11
2019-01-04T19:47:58.976Z,-0.25
2019-01-04T19:50:27.664Z,-0.03
2019-01-04T19:52:56.802Z,0.08
2019-01-04T19:55:25.487Z,-0.23
2019-01-04T19:57:54.563Z,-0.21
2019-01-04T20:00:23.578Z,-0.27
2019-01-04T20:02:52.255Z,-0.22
2019-01-04T20:05:43.918Z,-0.07
2019-01-04T20:08:44.870Z,-0.09
2019-01-04T20:11:55.840Z,0.05
2019-01-04T20:15:03.236Z,0.02
2019-01-04T20:17:52.048Z,-0.07
2019-01-04T20:20:25.167Z,-0.32
2019-01-04T20:22:58.186Z,-0.40
2019-01-04T20:25:43.777Z,-0.40
2019-01-04T20:28:30.244Z,-0.50
2019-01-04T20:31:03.267Z,-0.47
2019-01-04T20:33:50.072Z,-0.47
2019-01-04T20:36:20.337Z,-0.50
2019-01-04T20:39:05.761Z,-0.48
2019-01-04T20:41:52.334Z,-0.38
2019-01-04T20:44:34.577Z,-0.22
2019-01-04T20:47:04.826Z,-0.27
2019-01-04T20:49:35.070Z,-0.34
2019-01-04T20:52:11.483Z,-0.34
2019-01-04T20:54:47.559Z,-0.14
2019-01-04T20:57:18.062Z,-0.24
2019-01-04T20:59:48.321Z,-0.23
2019-01-04T21:02:35.202Z,-0.25
2019-01-04T21:05:05.669Z,-0.44
2019-01-04T21:07:51.176Z,-0.77
2019-01-04T21:10:21.468Z,-0.80
2019-01-04T21:12:55.086Z,-0.68
2019-01-04T21:15:40.589Z,-0.56
2019-01-04T21:18:17.015Z,-0.81
2019-01-04T21:20:50.055Z,-0.44
2019-01-04T21:23:20.664Z,-0.50
2019-01-04T21:25:57.251Z,-0.66
2019-01-04T21:28:27.512Z,-0.76
2019-01-04T21:31:14.233Z,-0.93
2019-01-04T21:33:50.523Z,-1.02
2019-01-04T21:36:26.720Z,-0.97
2019-01-04T21:39:03.043Z,-1.16
2019-01-04T21:41:39.186Z,-1.16
2019-01-04T21:44:25.855Z,-1.32
2019-01-04T21:47:11.560Z,-1.42
2019-01-04T21:50:00.225Z,-1.67
2019-01-04T21:52:33.487Z,-1.54
2019-01-04T21:55:03.731Z,-1.62
2019-01-04T21:57:33.985Z,-1.60
2019-01-04T22:00:07.255Z,-1.51
2019-01-04T22:02:37.503Z,-1.82
2019-01-04T22:05:13.454Z,-1.83
2019-01-04T22:07:55.680Z,-1.79
2019-01-04T22:10:36.568Z,-1.83
2019-01-04T22:13:15.596Z,-1.81
2019-01-04T22:16:02.422Z,-2.04
2019-01-04T22:18:47.751Z,-2.19
2019-01-04T22:21:18.146Z,-2.13
2019-01-04T22:24:03.705Z,-2.27
2019-01-04T22:26:43.270Z,-2.58
2019-01-04T22:29:29.900Z,-2.61
2019-01-04T22:32:16.641Z,-2.70
2019-01-04T22:34:46.903Z,-2.85
2019-01-04T22:37:17.159Z,-3.07
2019-01-04T22:39:53.594Z,-3.11
2019-01-04T22:42:39.933Z,-3.09
2019-01-04T22:45:26.557Z,-2.86
2019-01-04T22:47:56.801Z,-2.72
2019-01-04T22:50:33.170Z,-2.62
2019-01-04T22:53:21.489Z,-2.34
2019-01-04T22:55:57.782Z,-2.34
2019-01-04T22:58:33.839Z,-2.37
2019-01-04T23:01:05.477Z,-2.28
2019-01-04T23:03:47.600Z,-2.46
2019-01-04T23:06:34.402Z,-2.59
2019-01-04T23:09:10.737Z,-2.55
2019-01-04T23:11:46.849Z,-2.72
2019-01-04T23:14:20.072Z,-2.72
2019-01-04T23:16:50.339Z,-2.68
2019-01-04T23:19:20.719Z,-2.68
2019-01-04T23:22:09.512Z,-2.69
2019-01-04T23:24:45.972Z,-2.59
2019-01-04T23:27:16.226Z,-2.43
2019-01-04T23:29:46.635Z,-2.48
2019-01-04T23:32:16.896Z,-2.41
2019-01-04T23:34:56.385Z,-2.43
2019-01-04T23:37:41.663Z,-2.66
2019-01-04T23:40:12.034Z,-2.70
2019-01-04T23:42:42.281Z,-2.72
2019-01-04T23:45:12.536Z,-2.81
2019-01-04T23:47:52.041Z,-2.85
2019-01-04T23:50:25.191Z,-2.89
2019-01-04T23:53:04.640Z,-2.86
2019-01-04T23:55:43.875Z,-2.83
2019-01-04T23:58:20.301Z,-3.02
